createdAt,value
2023-01-17T01:32:18.977Z,62.21
2023-01-17T02:19:38.662Z,62.92
2023-01-17T02:22:39.970Z,51.91
2023-01-17T02:25:17.820Z,49.77
2023-01-17T02:28:15.524Z,49.02
2023-01-17T02:30:43.892Z,48.02
2023-01-17T02:33:31.873Z,47.22
2023-01-17T02:36:06.886Z,46.67
2023-01-17T02:38:39.687Z,46.44
2023-01-17T02:41:12.967Z,46.37
2023-01-17T02:43:39.878Z,45.94
2023-01-17T02:46:08.833Z,45.95
2023-01-17T02:48:37.285Z,45.87
2023-01-17T02:51:33.409Z,45.69
2023-01-17T02:54:18.090Z,45.62
2023-01-17T02:56:49.541Z,45.45
2023-01-17T02:59:56.311Z,45.38
2023-01-17T03:02:41.983Z,45.39
2023-01-17T03:05:14.179Z,45.34
2023-01-17T03:07:42.447Z,45.24
2023-01-17T03:10:09.944Z,45.14
2023-01-17T03:12:38.246Z,45.00
2023-01-17T03:15:12.754Z,44.85
2023-01-17T03:17:51.443Z,44.70
2023-01-17T03:20:18.572Z,44.72
2023-01-17T03:22:45.397Z,44.37
2023-01-17T03:25:12.094Z,44.17
2023-01-17T03:27:38.909Z,44.14
2023-01-17T03:30:06.844Z,44.05
2023-01-17T03:32:33.682Z,44.14
2023-01-17T03:35:00.443Z,43.87
2023-01-17T03:37:27.510Z,43.78
2023-01-17T03:39:54.569Z,43.54
2023-01-17T03:42:24.076Z,43.57
2023-01-17T03:44:50.757Z,43.57
2023-01-17T03:47:17.555Z,43.79
2023-01-17T03:49:44.287Z,43.81
2023-01-17T03:52:11.068Z,43.66
2023-01-17T03:54:38.178Z,43.68
2023-01-17T03:57:05.131Z,43.59
2023-01-17T03:59:33.493Z,43.67
2023-01-17T04:02:00.656Z,43.77
2023-01-17T04:04:27.430Z,43.65
2023-01-17T04:06:54.395Z,43.45
2023-01-17T04:09:21.209Z,43.51
2023-01-17T04:11:50.319Z,43.30
2023-01-17T04:14:17.450Z,43.21
2023-01-17T04:16:44.291Z,43.14
2023-01-17T04:19:13.916Z,43.12
2023-01-17T04:21:40.916Z,43.07
2023-01-17T04:24:07.944Z,42.83
2023-01-17T04:26:35.559Z,42.85
2023-01-17T04:29:03.239Z,42.79
2023-01-17T04:31:29.997Z,42.60
2023-01-17T04:34:01.139Z,42.49
2023-01-17T04:36:27.945Z,42.32
2023-01-17T04:38:54.559Z,42.38
2023-01-17T04:41:21.661Z,42.28
2023-01-17T04:43:48.864Z,42.26
2023-01-17T04:46:15.540Z,42.12
2023-01-17T04:48:42.225Z,42.32
2023-01-17T04:51:08.973Z,42.35
2023-01-17T04:53:36.241Z,42.38
2023-01-17T04:56:03.491Z,42.48
2023-01-17T04:58:32.821Z,42.45
2023-01-17T05:01:03.888Z,42.44
2023-01-17T05:03:31.488Z,42.34
2023-01-17T05:05:58.375Z,42.28
2023-01-17T05:08:25.274Z,42.17
2023-01-17T05:10:52.165Z,42.16
2023-01-17T05:13:18.904Z,42.04
2023-01-17T05:15:46.026Z,42.16
2023-01-17T05:18:13.852Z,42.12
2023-01-17T05:20:40.676Z,42.11
2023-01-17T05:23:08.019Z,42.21
2023-01-17T05:25:35.315Z,42.23
2023-01-17T05:28:02.631Z,42.39
2023-01-17T05:30:30.475Z,42.31
2023-01-17T05:32:57.692Z,42.20
2023-01-17T05:35:29.626Z,42.20
2023-01-17T05:37:58.431Z,42.34
2023-01-17T05:40:27.601Z,42.39
2023-01-17T05:42:58.151Z,42.42
2023-01-17T05:45:26.219Z,42.39
2023-01-17T05:47:54.182Z,42.35
2023-01-17T05:50:27.683Z,42.36
2023-01-17T05:52:56.478Z,42.42
2023-01-17T05:55:23.621Z,42.52
2023-01-17T05:57:50.850Z,42.68
2023-01-17T21:00:06.036Z,43.12
2023-01-17T21:02:33.061Z,43.15
2023-01-17T21:05:03.207Z,43.09
2023-01-17T21:07:30.068Z,43.04
2023-01-17T21:09:57.415Z,42.85
2023-01-17T21:12:24.079Z,42.74
2023-01-17T21:14:50.810Z,42.64
2023-01-17T21:17:18.759Z,42.56
2023-01-17T21:19:45.678Z,42.82
2023-01-17T21:22:16.207Z,42.76
2023-01-17T21:24:43.051Z,42.63
2023-01-17T21:27:11.786Z,42.69
2023-01-17T21:29:38.482Z,42.79
2023-01-17T21:32:05.882Z,42.80
2023-01-17T21:34:34.145Z,42.97
2023-01-17T21:37:01.775Z,42.91
2023-01-17T21:39:28.709Z,42.91
2023-01-17T21:41:55.418Z,42.91
2023-01-17T21:44:22.352Z,42.96
2023-01-17T21:46:52.469Z,42.99
2023-01-17T21:49:20.608Z,43.00
2023-01-17T21:51:53.373Z,42.84
